Jennifer — WDF6480 — position and weather

sailwx.info

Track history (hours):
 
Tides and Currents Weather Stations Pressure Air Temp Water Temp Dewpoint Dewpoint Depression Visibility Wind Speed Wind Dir Waves Ship Positions

Jennifer

Owner: John W. Stone Oil Distributor, L.L.C., Gretna, LA. More information available from US FCC via Universal Licensing System and Coast Guard Vessel Documentation Center.

Last reported at 2016-Jan-10 12:29 UTC. Time now 2016-Feb-08 12:27 UTC.
Position N 29°33' W 090°28'.
Warning: this ship's position is 28 days out of date.

Length 17 m; draft 3 m.

Type: Tug. MMSI: 367474690.

Date/timePositionNaut miles runAvg speedWind from/ knotsBaromVisibWave heightAir tempDewpointWater temp
2016-Jan-10 12:29N 29°33' W 090°28'7 7.1
2016-Jan-10 11:33N 29°35' W 090°35'6 5.9
2016-Jan-10 10:33N 29°37' W 090°42'3 2.8
2016-Jan-10 09:33N 29°34' W 090°43'2 2.5
2016-Jan-10 08:33N 29°32' W 090°42'11 0.4
2016-Jan-09 07:29N 29°21' W 090°44'3 0.3
2016-Jan-08 21:13N 29°25' W 090°44'0 0.0
2016-Jan-08 17:16N 29°25' W 090°44'3 4.7
2016-Jan-08 16:33N 29°28' W 090°43'6 6.3
2016-Jan-08 15:33N 29°34' W 090°43'3 2.8
2016-Jan-08 14:33N 29°36' W 090°41'1 0.6
2016-Jan-08 13:33N 29°36' W 090°40'0 0.0
2016-Jan-08 12:33N 29°36' W 090°40'0 0.0
2016-Jan-08 11:33N 29°36' W 090°40'0 0.0
2016-Jan-08 10:33N 29°36' W 090°40'0 0.0
2016-Jan-08 09:33N 29°36' W 090°40'0 0.0
2016-Jan-08 08:33N 29°36' W 090°40'0 0.0
2016-Jan-08 07:33N 29°36' W 090°40'0 0.0
2016-Jan-08 06:33N 29°36' W 090°40'0 0.0
2016-Jan-08 05:33N 29°36' W 090°40'0 0.0
2016-Jan-08 04:33N 29°36' W 090°40'0 0.0
2016-Jan-08 03:33N 29°36' W 090°40'0 0.0
2016-Jan-08 02:33N 29°36' W 090°40'0 0.0
2016-Jan-08 01:33N 29°36' W 090°40'0 0.0
2016-Jan-08 00:33N 29°36' W 090°40'0 0.1
2016-Jan-07 23:33N 29°36' W 090°40'3 3.4
2016-Jan-07 22:33N 29°35' W 090°37'  
2016-Jan-04 08:08N 29°33' W 090°25'3 5.9
2016-Jan-04 07:33N 29°33' W 090°28'6 5.7
2016-Jan-04 06:33N 29°34' W 090°35'5 5.3
2016-Jan-04 05:33N 29°36' W 090°41'3 3.4
2016-Jan-04 04:33N 29°34' W 090°44'2 2.2
2016-Jan-04 03:33N 29°32' W 090°46'6 6.1
2016-Jan-04 02:32N 29°32' W 090°53'1 0.0
2016-Jan-02 16:33N 29°33' W 090°54'6 6.0
2016-Jan-02 15:34N 29°32' W 090°47'5 4.8
2016-Jan-02 14:34N 29°35' W 090°43'3 2.5
2016-Jan-02 13:33N 29°36' W 090°40'5 4.9
2016-Jan-02 12:33N 29°35' W 090°35'  
Track history (hours):
 
Tides and Currents Weather Stations Pressure Air Temp Water Temp Dewpoint Dewpoint Depression Visibility Wind Speed Wind Dir Waves Ship Positions

Jennifer

Owner: John W. Stone Oil Distributor, L.L.C., Gretna, LA. More information available from US FCC via Universal Licensing System and Coast Guard Vessel Documentation Center.

Last reported at 2016-Jan-10 12:29 UTC. Time now 2016-Feb-08 12:27 UTC.
Position N 29°33' W 090°28'.
Warning: this ship's position is 28 days out of date.

Length 17 m; draft 3 m.

Type: Tug. MMSI: 367474690.

Date/timePositionNaut miles runAvg speedWind from/ knotsBaromVisibWave heightAir tempDewpointWater temp
2016-Jan-10 12:29N 29°33' W 090°28'7 7.1
2016-Jan-10 11:33N 29°35' W 090°35'6 5.9
2016-Jan-10 10:33N 29°37' W 090°42'3 2.8
2016-Jan-10 09:33N 29°34' W 090°43'2 2.5
2016-Jan-10 08:33N 29°32' W 090°42'11 0.4
2016-Jan-09 07:29N 29°21' W 090°44'3 0.3
2016-Jan-08 21:13N 29°25' W 090°44'0 0.0
2016-Jan-08 17:16N 29°25' W 090°44'3 4.7
2016-Jan-08 16:33N 29°28' W 090°43'6 6.3
2016-Jan-08 15:33N 29°34' W 090°43'3 2.8
2016-Jan-08 14:33N 29°36' W 090°41'1 0.6
2016-Jan-08 13:33N 29°36' W 090°40'0 0.0
2016-Jan-08 12:33N 29°36' W 090°40'0 0.0
2016-Jan-08 11:33N 29°36' W 090°40'0 0.0
2016-Jan-08 10:33N 29°36' W 090°40'0 0.0
2016-Jan-08 09:33N 29°36' W 090°40'0 0.0
2016-Jan-08 08:33N 29°36' W 090°40'0 0.0
2016-Jan-08 07:33N 29°36' W 090°40'0 0.0
2016-Jan-08 06:33N 29°36' W 090°40'0 0.0
2016-Jan-08 05:33N 29°36' W 090°40'0 0.0
2016-Jan-08 04:33N 29°36' W 090°40'0 0.0
2016-Jan-08 03:33N 29°36' W 090°40'0 0.0
2016-Jan-08 02:33N 29°36' W 090°40'0 0.0
2016-Jan-08 01:33N 29°36' W 090°40'0 0.0
2016-Jan-08 00:33N 29°36' W 090°40'0 0.1
2016-Jan-07 23:33N 29°36' W 090°40'3 3.4
2016-Jan-07 22:33N 29°35' W 090°37'  
2016-Jan-04 08:08N 29°33' W 090°25'3 5.9
2016-Jan-04 07:33N 29°33' W 090°28'6 5.7
2016-Jan-04 06:33N 29°34' W 090°35'5 5.3
2016-Jan-04 05:33N 29°36' W 090°41'3 3.4
2016-Jan-04 04:33N 29°34' W 090°44'2 2.2
2016-Jan-04 03:33N 29°32' W 090°46'6 6.1
2016-Jan-04 02:32N 29°32' W 090°53'1 0.0
2016-Jan-02 16:33N 29°33' W 090°54'6 6.0
2016-Jan-02 15:34N 29°32' W 090°47'5 4.8
2016-Jan-02 14:34N 29°35' W 090°43'3 2.5
2016-Jan-02 13:33N 29°36' W 090°40'5 4.9
2016-Jan-02 12:33N 29°35' W 090°35'  

Dump ship's entire track history